createdAt,value
2022-08-25T00:00:48.415Z,9.75
2022-08-25T00:03:15.967Z,9.38
2022-08-25T00:05:42.969Z,12.95
2022-08-25T00:08:09.703Z,9.90
2022-08-25T00:10:37.508Z,10.45
2022-08-25T00:13:04.457Z,10.15
2022-08-25T00:15:33.797Z,8.95
2022-08-25T00:18:01.010Z,8.93
2022-08-25T00:20:28.185Z,11.27
2022-08-25T00:22:56.072Z,8.82
2022-08-25T00:25:23.419Z,9.55
2022-08-25T00:27:50.327Z,11.15
2022-08-25T00:30:17.429Z,16.08
2022-08-25T00:32:44.489Z,10.32
2022-08-25T00:35:21.709Z,9.25
2022-08-25T00:37:48.072Z,8.05
2022-08-25T00:40:14.799Z,11.02
2022-08-25T00:42:41.599Z,9.75
2022-08-25T00:45:08.509Z,9.55
2022-08-25T00:47:35.718Z,11.48
2022-08-25T00:50:04.594Z,10.65
2022-08-25T00:52:39.317Z,12.52
2022-08-25T00:55:11.894Z,8.98
2022-08-25T00:57:40.434Z,10.75
2022-08-25T01:00:10.771Z,11.02
2022-08-25T01:02:37.860Z,11.77
2022-08-25T01:05:04.538Z,10.40
2022-08-25T01:07:30.992Z,13.95
2022-08-25T01:09:57.372Z,12.75
2022-08-25T01:12:23.786Z,12.63
2022-08-25T01:14:51.223Z,11.73
2022-08-25T01:17:17.657Z,11.98
2022-08-25T01:19:44.104Z,9.23
2022-08-25T01:22:12.059Z,13.10
2022-08-25T01:24:42.641Z,11.43
2022-08-25T01:27:09.420Z,11.68
2022-08-25T01:29:37.027Z,9.63
2022-08-25T01:32:06.120Z,8.65
2022-08-25T01:34:33.590Z,12.77
2022-08-25T01:37:00.582Z,10.15
2022-08-25T01:39:28.054Z,9.73
2022-08-25T01:42:04.644Z,8.82
2022-08-25T01:44:31.898Z,10.02
2022-08-25T01:46:58.393Z,10.35
2022-08-25T01:49:24.802Z,15.07
2022-08-25T01:51:52.636Z,11.65
2022-08-25T01:54:19.088Z,11.15
2022-08-25T01:56:45.559Z,12.13
2022-08-25T01:59:14.403Z,9.98
2022-08-25T02:01:48.169Z,12.27
2022-08-25T02:04:14.610Z,10.98
2022-08-25T02:06:42.557Z,12.90
2022-08-25T02:09:10.939Z,11.20
2022-08-25T02:11:38.951Z,13.07
2022-08-25T02:14:06.023Z,13.55
2022-08-25T02:16:33.587Z,8.93
2022-08-25T02:19:00.295Z,10.80
2022-08-25T02:21:26.911Z,11.50
2022-08-25T02:23:53.571Z,16.70
2022-08-25T02:26:20.097Z,10.57
2022-08-25T02:28:47.174Z,10.95
2022-08-25T02:31:14.521Z,14.38
2022-08-25T02:33:41.035Z,10.80
2022-08-25T02:36:07.622Z,13.80
2022-08-25T02:38:34.900Z,13.63
2022-08-25T02:41:01.879Z,12.13
2022-08-25T02:43:29.087Z,14.30
2022-08-25T02:45:56.374Z,10.98
2022-08-25T02:48:23.427Z,14.95
2022-08-25T02:50:52.459Z,12.60
2022-08-25T02:53:19.990Z,14.93
2022-08-25T02:55:47.407Z,13.50
2022-08-25T02:58:14.354Z,13.75
2022-08-25T03:00:40.772Z,16.55
2022-08-25T03:03:09.718Z,15.68
2022-08-25T03:05:36.247Z,11.25
2022-08-25T03:08:02.866Z,13.70
2022-08-25T03:10:29.310Z,15.18
2022-08-25T03:12:55.645Z,13.38
2022-08-25T03:15:22.042Z,14.80
2022-08-25T03:17:51.897Z,16.05
2022-08-25T03:20:18.645Z,11.88
2022-08-25T03:22:45.018Z,16.33
2022-08-25T03:25:30.235Z,15.98
2022-08-25T03:27:56.778Z,13.07
2022-08-25T03:30:23.422Z,12.40
2022-08-25T03:32:50.022Z,17.00
2022-08-25T03:35:16.430Z,12.07
2022-08-25T03:37:42.832Z,15.27
2022-08-25T03:40:15.298Z,16.42
2022-08-25T03:42:46.643Z,11.98
2022-08-25T03:45:13.637Z,15.33
2022-08-25T03:47:40.355Z,17.92
2022-08-25T03:50:08.641Z,11.98
2022-08-25T03:52:37.916Z,12.63
2022-08-25T03:55:09.232Z,13.80
2022-08-25T03:57:35.885Z,14.90
2022-08-25T04:00:03.359Z,13.93
2022-08-25T04:02:38.292Z,13.00
2022-08-25T04:05:05.001Z,13.52
2022-08-25T04:07:31.743Z,17.52
2022-08-25T04:09:58.398Z,14.75
2022-08-25T04:12:25.004Z,12.90
2022-08-25T04:14:51.825Z,15.88
2022-08-25T04:17:18.454Z,13.50
2022-08-25T04:19:44.890Z,16.17
2022-08-25T04:22:11.257Z,14.98
2022-08-25T04:24:39.769Z,17.25
2022-08-25T04:27:06.181Z,17.67
2022-08-25T04:29:33.587Z,12.80
2022-08-25T04:32:00.059Z,17.42
2022-08-25T04:34:30.186Z,14.80
2022-08-25T04:36:58.031Z,14.27
2022-08-25T04:39:24.489Z,13.65
2022-08-25T04:41:51.393Z,18.50
2022-08-25T04:44:17.867Z,16.15
2022-08-25T04:46:44.251Z,15.32
2022-08-25T04:49:10.748Z,15.73
2022-08-25T04:51:39.606Z,17.05
2022-08-25T04:54:08.443Z,13.75
2022-08-25T04:56:35.289Z,19.25
2022-08-25T04:59:02.698Z,15.93
2022-08-25T05:01:29.487Z,17.65
2022-08-25T05:03:57.227Z,14.75
2022-08-25T05:06:23.834Z,14.90
2022-08-25T05:08:51.376Z,14.43
2022-08-25T05:11:18.958Z,16.98
2022-08-25T05:13:51.406Z,14.32
2022-08-25T05:16:19.029Z,15.80
2022-08-25T05:18:45.658Z,20.42
2022-08-25T05:21:16.427Z,16.27
2022-08-25T05:23:43.082Z,17.02
2022-08-25T05:26:20.372Z,16.13
2022-08-25T05:28:47.746Z,14.13
2022-08-25T05:31:15.318Z,16.27
2022-08-25T05:33:42.206Z,19.75
2022-08-25T05:36:10.006Z,17.83
2022-08-25T05:38:37.722Z,20.25
2022-08-25T05:41:05.865Z,18.63
2022-08-25T05:43:32.907Z,18.17
2022-08-25T05:45:59.769Z,14.68
2022-08-25T05:48:26.868Z,18.08
2022-08-25T05:50:58.308Z,19.08
2022-08-25T05:53:25.381Z,19.83
2022-08-25T05:55:53.139Z,18.58
2022-08-25T05:58:20.084Z,18.50
2022-08-25T06:00:47.089Z,18.02
2022-08-25T06:03:14.099Z,17.05
2022-08-25T06:05:41.206Z,18.05
2022-08-25T06:08:08.004Z,18.77
2022-08-25T06:10:34.850Z,18.38
2022-08-25T06:13:01.855Z,18.60
2022-08-25T06:15:28.306Z,18.02
2022-08-25T06:18:00.729Z,19.38
2022-08-25T06:20:30.447Z,20.20
2022-08-25T06:22:57.591Z,21.52
2022-08-25T06:25:25.218Z,18.67
2022-08-25T06:27:51.836Z,18.90
2022-08-25T06:30:24.420Z,25.65
2022-08-25T06:32:54.962Z,20.92
2022-08-25T06:35:21.513Z,22.05
2022-08-25T06:37:48.125Z,21.80
2022-08-25T06:40:15.273Z,20.85
2022-08-25T06:42:41.930Z,19.77
2022-08-25T06:45:08.821Z,23.25
2022-08-25T06:47:35.395Z,19.48
2022-08-25T06:50:04.719Z,23.55
2022-08-25T06:52:31.609Z,21.55
2022-08-25T06:54:58.075Z,20.95
2022-08-25T06:57:24.587Z,18.73
2022-08-25T06:59:53.373Z,21.73
2022-08-25T07:02:22.185Z,19.98
2022-08-25T07:04:53.627Z,20.75
2022-08-25T07:09:46.840Z,24.77
2022-08-25T07:12:13.506Z,27.30
2022-08-25T07:14:40.108Z,24.13
2022-08-25T07:17:21.467Z,23.40
2022-08-25T07:19:49.862Z,27.42
2022-08-25T07:22:24.320Z,24.95
2022-08-25T07:24:50.792Z,25.60
2022-08-25T07:27:17.225Z,28.98
2022-08-25T07:29:44.199Z,25.27
2022-08-25T07:32:10.917Z,23.80
2022-08-25T07:34:56.248Z,26.00
2022-08-25T07:37:47.594Z,26.83
2022-08-25T07:40:10.930Z,24.38
2022-08-25T07:42:37.862Z,21.35
2022-08-25T07:45:05.468Z,24.50
2022-08-25T07:47:34.147Z,24.42
2022-08-25T07:50:00.662Z,22.30
2022-08-25T07:52:28.206Z,23.27
2022-08-25T07:54:55.211Z,22.88
2022-08-25T07:57:22.452Z,22.63
2022-08-25T07:59:48.865Z,19.60
2022-08-25T08:02:19.360Z,18.73
2022-08-25T08:04:48.858Z,17.25
2022-08-25T08:07:17.215Z,20.63
2022-08-25T08:09:43.910Z,20.08
2022-08-25T08:12:10.412Z,19.80
2022-08-25T08:14:39.545Z,19.30
2022-08-25T08:17:07.994Z,18.17
2022-08-25T08:19:34.938Z,18.67
2022-08-25T08:22:02.334Z,18.55
2022-08-25T08:24:44.325Z,16.13
2022-08-25T08:27:15.987Z,15.65
2022-08-25T08:29:46.092Z,18.60
2022-08-25T08:32:13.634Z,18.75
2022-08-25T08:34:43.416Z,19.40
2022-08-25T08:37:10.847Z,16.80
2022-08-25T08:39:37.991Z,17.92
2022-08-25T08:42:19.530Z,17.05
2022-08-25T08:44:47.912Z,16.10
2022-08-25T08:47:33.688Z,17.70
2022-08-25T08:50:06.473Z,22.73
2022-08-25T08:52:39.151Z,21.60
2022-08-25T08:55:09.494Z,20.98
2022-08-25T08:57:39.361Z,17.60
2022-08-25T09:00:06.650Z,17.20
2022-08-25T09:02:51.525Z,16.45
2022-08-25T09:05:20.076Z,20.17
2022-08-25T09:07:55.032Z,16.73
2022-08-25T09:10:23.117Z,16.25
2022-08-25T09:13:12.760Z,17.70
2022-08-25T09:16:00.563Z,17.90
2022-08-25T09:18:51.083Z,17.17
2022-08-25T09:21:20.078Z,14.98
2022-08-25T09:23:49.618Z,18.77
2022-08-25T09:26:39.771Z,17.75
2022-08-25T09:29:16.763Z,22.48
2022-08-25T09:31:44.809Z,17.45
2022-08-25T09:34:22.692Z,18.02
2022-08-25T09:36:52.826Z,19.85
2022-08-25T09:41:51.244Z,19.60
2022-08-25T09:44:18.391Z,15.18
2022-08-25T09:47:02.261Z,15.23
2022-08-25T09:49:43.206Z,12.05
2022-08-25T09:52:18.694Z,17.80
2022-08-25T09:54:46.926Z,14.43
2022-08-25T09:57:34.498Z,15.18
2022-08-25T10:00:12.642Z,13.15
2022-08-25T10:02:39.573Z,13.05
2022-08-25T10:05:56.135Z,10.95
2022-08-25T10:08:39.765Z,14.68
2022-08-25T10:11:09.025Z,12.02
2022-08-25T10:13:38.231Z,9.63
2022-08-25T10:16:24.509Z,14.63
2022-08-25T10:19:10.240Z,9.40
2022-08-25T10:21:38.260Z,13.75
2022-08-25T10:24:06.074Z,12.23
2022-08-25T10:26:36.926Z,10.27
2022-08-25T10:29:09.951Z,13.00
2022-08-25T10:31:41.316Z,12.70
2022-08-25T10:34:07.880Z,11.57
2022-08-25T10:36:53.603Z,10.70
2022-08-25T10:39:40.474Z,15.38
2022-08-25T10:42:32.126Z,15.43
2022-08-25T10:45:39.139Z,14.80
2022-08-25T10:48:13.092Z,14.73
2022-08-25T10:50:45.384Z,13.40
2022-08-25T10:53:12.707Z,16.38
2022-08-25T10:55:40.490Z,9.77
2022-08-25T10:58:23.191Z,9.52
2022-08-25T11:01:01.347Z,11.48
2022-08-25T11:03:43.826Z,10.38
2022-08-25T11:06:24.942Z,11.60
2022-08-25T11:08:57.486Z,10.13
2022-08-25T11:11:37.579Z,11.23
2022-08-25T11:14:20.042Z,12.40
2022-08-25T11:16:58.675Z,10.15
2022-08-25T11:19:30.864Z,11.13
2022-08-25T11:22:11.638Z,9.00
2022-08-25T11:24:49.133Z,10.95
2022-08-25T11:27:21.700Z,13.68
2022-08-25T11:29:58.972Z,13.75
2022-08-25T11:32:27.476Z,14.57
2022-08-25T11:34:55.295Z,10.70
2022-08-25T11:37:46.992Z,9.95
2022-08-25T11:40:16.576Z,9.63
2022-08-25T11:42:55.742Z,11.32
2022-08-25T11:45:40.755Z,11.05
2022-08-25T11:48:25.945Z,11.98
2022-08-25T11:51:01.416Z,9.82
2022-08-25T11:53:30.248Z,13.88
2022-08-25T11:56:04.243Z,14.05
2022-08-25T11:58:32.704Z,16.55
2022-08-25T12:01:00.858Z,12.15
2022-08-25T12:03:36.469Z,18.92
2022-08-25T12:06:15.328Z,16.88
2022-08-25T12:08:47.727Z,12.10
2022-08-25T12:11:34.124Z,15.32
2022-08-25T12:14:13.730Z,14.45
2022-08-25T12:16:40.241Z,18.35
2022-08-25T12:19:25.572Z,13.20
2022-08-25T12:21:52.945Z,14.30
2022-08-25T12:24:47.203Z,14.38
2022-08-25T12:27:34.260Z,14.65
2022-08-25T12:30:03.133Z,12.70
2022-08-25T12:32:47.622Z,12.75
2022-08-25T12:35:22.897Z,10.57
2022-08-25T12:38:08.924Z,14.00
2022-08-25T12:40:53.243Z,8.02
2022-08-25T12:43:19.846Z,13.90
2022-08-25T12:45:47.707Z,13.85
2022-08-25T12:48:26.252Z,10.68
2022-08-25T12:51:02.680Z,16.67
2022-08-25T12:53:40.060Z,15.18
2022-08-25T12:56:27.672Z,13.65
2022-08-25T12:59:03.655Z,14.13
2022-08-25T13:01:39.233Z,14.13
2022-08-25T13:04:22.456Z,14.65
2022-08-25T13:07:02.946Z,12.48
2022-08-25T13:09:58.653Z,18.98
2022-08-25T13:12:30.861Z,8.68
2022-08-25T13:14:57.582Z,15.40
2022-08-25T13:17:26.837Z,11.40
2022-08-25T13:20:10.306Z,11.63
2022-08-25T13:22:37.110Z,13.80
2022-08-25T13:25:05.418Z,13.50
2022-08-25T13:27:34.032Z,16.98
2022-08-25T13:30:03.874Z,12.88
2022-08-25T13:32:35.303Z,10.73
2022-08-25T13:35:20.114Z,11.23
2022-08-25T13:37:46.918Z,13.32
2022-08-25T13:40:19.668Z,13.48
2022-08-25T13:42:54.357Z,15.75
2022-08-25T13:45:27.819Z,11.13
2022-08-25T13:48:07.622Z,11.63
2022-08-25T13:50:51.696Z,14.10
2022-08-25T13:53:23.897Z,11.63
2022-08-25T13:55:52.233Z,10.10
2022-08-25T13:58:24.298Z,11.20
2022-08-25T14:01:23.695Z,12.60
2022-08-25T14:04:21.264Z,10.57
2022-08-25T14:06:47.715Z,11.57
2022-08-25T14:09:16.491Z,9.55
2022-08-25T14:11:44.645Z,9.82
2022-08-25T14:14:31.309Z,9.07
2022-08-25T14:17:21.534Z,9.60
2022-08-25T14:19:52.732Z,10.38
2022-08-25T14:22:40.077Z,14.38
2022-08-25T14:25:08.644Z,10.70
2022-08-25T14:27:42.090Z,12.60
2022-08-25T14:30:28.909Z,13.68
2022-08-25T14:32:56.223Z,12.60
2022-08-25T14:35:22.642Z,10.55
2022-08-25T14:37:49.310Z,14.40
2022-08-25T14:40:19.878Z,11.75
2022-08-25T14:42:47.545Z,16.33
2022-08-25T14:45:17.299Z,11.07
2022-08-25T14:47:44.399Z,13.50
2022-08-25T14:50:16.991Z,12.27
2022-08-25T14:52:46.807Z,10.57
2022-08-25T14:55:13.359Z,8.60
2022-08-25T14:57:54.098Z,14.25
2022-08-25T15:00:20.915Z,13.43
2022-08-25T15:02:52.924Z,12.82
2022-08-25T15:05:25.685Z,12.02
2022-08-25T15:08:12.249Z,11.15
2022-08-25T15:10:39.285Z,15.15
2022-08-25T15:13:06.308Z,12.95
2022-08-25T15:15:35.024Z,13.57
2022-08-25T15:18:01.497Z,13.05
2022-08-25T15:20:28.135Z,12.07
2022-08-25T15:22:55.652Z,13.68
2022-08-25T15:25:22.816Z,11.60
2022-08-25T15:27:50.884Z,13.68
2022-08-25T15:30:17.305Z,12.48
2022-08-25T15:32:45.226Z,13.85
2022-08-25T15:35:15.479Z,12.48
2022-08-25T15:37:42.193Z,13.18
2022-08-25T15:40:09.367Z,12.10
2022-08-25T15:42:58.103Z,10.48
2022-08-25T15:45:25.302Z,14.70
2022-08-25T15:47:53.949Z,15.73
2022-08-25T15:50:25.756Z,13.10
2022-08-25T15:52:52.585Z,17.85
2022-08-25T15:55:19.937Z,11.45
2022-08-25T15:57:47.815Z,15.77
2022-08-25T16:00:17.087Z,15.20
2022-08-25T16:02:45.459Z,12.07
2022-08-25T16:05:13.816Z,14.85
2022-08-25T16:07:43.168Z,12.90
2022-08-25T16:10:12.560Z,14.25
2022-08-25T16:12:40.154Z,11.30
2022-08-25T16:15:09.556Z,15.95
2022-08-25T16:17:38.575Z,19.10
2022-08-25T16:20:07.479Z,15.32
2022-08-25T16:22:40.648Z,11.88
2022-08-25T16:25:07.408Z,10.82
2022-08-25T16:27:38.871Z,11.77
2022-08-25T16:30:07.064Z,12.70
2022-08-25T16:32:33.452Z,13.32
2022-08-25T16:34:59.839Z,13.23
2022-08-25T16:37:26.278Z,15.43
2022-08-25T16:39:53.168Z,13.63
2022-08-25T16:42:19.933Z,14.95
2022-08-25T16:44:46.675Z,19.80
2022-08-25T16:47:14.584Z,14.80
2022-08-25T16:49:44.566Z,17.88
2022-08-25T16:52:29.860Z,17.05
2022-08-25T16:55:12.845Z,19.27
2022-08-25T16:57:41.424Z,24.80
2022-08-25T17:00:12.772Z,16.25
2022-08-25T17:02:39.485Z,15.57
2022-08-25T17:05:06.882Z,22.15
2022-08-25T17:07:33.493Z,20.02
2022-08-25T17:10:00.052Z,21.73
2022-08-25T17:12:26.684Z,20.50
2022-08-25T17:14:53.308Z,22.55
2022-08-25T17:17:20.066Z,18.23
2022-08-25T17:19:49.764Z,17.38
2022-08-25T17:22:19.591Z,18.15
2022-08-25T17:24:47.311Z,22.23
2022-08-25T17:27:26.853Z,23.15
2022-08-25T17:29:53.497Z,20.15
2022-08-25T17:32:19.955Z,18.73
2022-08-25T17:34:46.690Z,26.77
2022-08-25T17:37:13.208Z,23.17
2022-08-25T17:39:40.781Z,21.67
2022-08-25T17:42:07.224Z,20.67
2022-08-25T17:44:35.018Z,21.45
2022-08-25T17:47:04.037Z,21.27
2022-08-25T17:49:31.317Z,19.20
2022-08-25T17:51:58.216Z,21.83
2022-08-25T17:54:25.087Z,24.55
2022-08-25T17:56:51.523Z,21.65
2022-08-25T17:59:19.271Z,22.65
2022-08-25T18:01:46.289Z,17.63
2022-08-25T18:04:17.816Z,15.38
2022-08-25T18:06:47.652Z,15.27
2022-08-25T18:09:14.967Z,19.58
2022-08-25T18:11:42.084Z,18.88
2022-08-25T18:14:10.810Z,19.58
2022-08-25T18:16:37.595Z,20.83
2022-08-25T18:19:04.055Z,18.08
2022-08-25T18:21:36.155Z,21.92
2022-08-25T18:24:03.323Z,19.60
2022-08-25T18:26:29.862Z,23.40
2022-08-25T18:28:56.450Z,21.85
2022-08-25T18:31:22.910Z,15.45
2022-08-25T18:33:51.128Z,20.80
2022-08-25T18:36:20.447Z,22.90
2022-08-25T18:39:06.117Z,22.15
2022-08-25T18:41:33.627Z,19.33
2022-08-25T18:44:00.237Z,15.20
2022-08-25T18:46:26.877Z,20.65
2022-08-25T18:48:53.336Z,26.65
2022-08-25T18:51:23.300Z,17.08
2022-08-25T18:53:51.044Z,14.63
2022-08-25T18:56:18.769Z,17.90
2022-08-25T18:58:46.604Z,22.55
2022-08-25T19:01:14.360Z,19.55
2022-08-25T19:03:43.035Z,17.55
2022-08-25T19:06:09.879Z,19.60
2022-08-25T19:08:39.429Z,21.00
2022-08-25T19:11:08.609Z,19.20
2022-08-25T19:13:35.178Z,19.95
2022-08-25T19:16:11.679Z,19.60
2022-08-25T19:18:39.038Z,23.08
2022-08-25T19:21:06.063Z,21.52
2022-08-25T19:23:32.727Z,19.05
2022-08-25T19:26:00.144Z,16.60
2022-08-25T19:28:26.663Z,21.85
2022-08-25T19:30:53.142Z,15.80
2022-08-25T19:33:42.002Z,17.42
2022-08-25T19:36:08.799Z,18.63
2022-08-25T19:38:35.952Z,19.42
2022-08-25T19:41:02.635Z,15.60
2022-08-25T19:43:40.399Z,14.73
2022-08-25T19:46:23.166Z,18.80
2022-08-25T19:48:49.644Z,13.43
2022-08-25T19:51:17.091Z,18.88
2022-08-25T19:53:46.749Z,19.70
2022-08-25T19:56:20.077Z,16.00
2022-08-25T19:58:46.427Z,20.67
2022-08-25T20:01:13.997Z,17.58
2022-08-25T20:03:44.882Z,19.48
2022-08-25T20:06:11.270Z,17.48
2022-08-25T20:08:37.730Z,15.57
2022-08-25T20:11:04.534Z,16.73
2022-08-25T20:13:31.082Z,17.35
2022-08-25T20:15:58.796Z,20.63
2022-08-25T20:18:25.564Z,15.15
2022-08-25T20:20:52.595Z,16.65
2022-08-25T20:23:37.975Z,16.75
2022-08-25T20:26:05.362Z,14.93
2022-08-25T20:28:31.767Z,16.95
2022-08-25T20:30:59.591Z,14.43
2022-08-25T20:33:26.530Z,17.95
2022-08-25T20:35:53.316Z,16.67
2022-08-25T20:38:19.906Z,17.05
2022-08-25T20:40:46.402Z,18.15
2022-08-25T20:43:15.234Z,19.50
2022-08-25T20:45:41.696Z,14.60
2022-08-25T20:48:09.494Z,19.05
2022-08-25T20:50:37.995Z,15.55
2022-08-25T20:53:05.719Z,16.13
2022-08-25T20:55:42.332Z,18.13
2022-08-25T20:58:10.135Z,17.90
2022-08-25T21:00:36.630Z,13.07
2022-08-25T21:03:03.165Z,15.77
2022-08-25T21:05:29.610Z,15.48
2022-08-25T21:07:56.058Z,16.13
2022-08-25T21:10:23.755Z,15.90
2022-08-25T21:12:53.436Z,18.52
2022-08-25T21:15:20.110Z,18.30
2022-08-25T21:17:54.483Z,14.57
2022-08-25T21:20:24.078Z,16.10
2022-08-25T21:22:50.962Z,19.65
2022-08-25T21:25:17.822Z,18.30
2022-08-25T21:27:44.492Z,16.27
2022-08-25T21:30:14.648Z,18.48
2022-08-25T21:32:52.909Z,15.38
2022-08-25T21:35:20.434Z,18.52
2022-08-25T21:37:48.940Z,15.27
2022-08-25T21:40:20.942Z,20.45
2022-08-25T21:42:48.680Z,18.38
2022-08-25T21:45:15.405Z,19.50
2022-08-25T21:47:42.707Z,16.58
2022-08-25T21:50:12.703Z,18.83
2022-08-25T21:52:39.188Z,19.02
2022-08-25T21:55:07.816Z,18.15
2022-08-25T21:57:42.282Z,16.95
2022-08-25T22:00:10.804Z,13.93
2022-08-25T22:02:38.492Z,16.55
2022-08-25T22:05:05.236Z,21.35
2022-08-25T22:10:12.772Z,16.85
2022-08-25T22:12:43.525Z,17.38
2022-08-25T22:15:10.302Z,19.05
2022-08-25T22:17:40.443Z,19.30
2022-08-25T22:20:07.884Z,15.63
2022-08-25T22:22:34.302Z,18.38
2022-08-25T22:25:01.005Z,20.27
2022-08-25T22:27:27.760Z,20.88
2022-08-25T22:29:54.153Z,20.80
2022-08-25T22:32:20.515Z,19.65
2022-08-25T22:34:48.259Z,16.30
2022-08-25T22:37:17.793Z,20.38
2022-08-25T22:39:45.425Z,15.30
2022-08-25T22:42:12.283Z,17.55
2022-08-25T22:44:39.873Z,18.55
2022-08-25T22:47:06.860Z,19.33
2022-08-25T22:49:35.384Z,14.63
2022-08-25T22:52:02.325Z,17.80
2022-08-25T22:54:29.870Z,18.33
2022-08-25T22:56:56.424Z,14.52
2022-08-25T22:59:22.990Z,13.93
2022-08-25T23:01:49.633Z,20.50
2022-08-25T23:04:16.042Z,18.38
2022-08-25T23:06:44.214Z,20.30
2022-08-25T23:09:10.861Z,15.93
2022-08-25T23:11:38.641Z,15.80
2022-08-25T23:14:06.600Z,16.05
2022-08-25T23:16:33.173Z,19.00
2022-08-25T23:18:59.919Z,21.58
2022-08-25T23:21:45.311Z,14.90
2022-08-25T23:24:12.465Z,20.38
2022-08-25T23:26:42.564Z,15.73
2022-08-25T23:29:18.839Z,16.77
2022-08-25T23:31:46.373Z,13.80
2022-08-25T23:34:13.037Z,17.23
2022-08-25T23:36:39.664Z,14.52
2022-08-25T23:39:07.715Z,16.63
2022-08-25T23:41:35.483Z,15.27
2022-08-25T23:44:05.300Z,20.73
2022-08-25T23:46:32.775Z,15.90
2022-08-25T23:48:59.403Z,18.27
2022-08-25T23:51:27.804Z,16.55
2022-08-25T23:53:55.121Z,14.32
2022-08-25T23:56:21.955Z,15.63
2022-08-25T23:58:48.635Z,13.60
